FW7740 Weather Reports


Display with metric or nautical units.
time (UTC)temp
F
wind
direction
speed
MPH
gust
MPH
rain 1hr
in
rain 24hr
in
rain mn
in
humidity
%
barometer
mb
20220707170839 0 66 1.0 1.0 0.00 0.00 0.00 1023.6
20220707170337 0 54 2.0 2.0 0.00 0.00 0.00 1023.3
20220707165837 0 30 0.0 1.0 0.00 0.00 0.00 1023.6
20220707165336 0 29 3.0 3.0 0.00 0.00 0.00 1023.6
20220707164836 0 38 1.0 1.0 0.00 0.00 0.00 1023.3
20220707164335 0 66 0.0 1.0 0.00 0.00 0.00 1023.6
20220707163834 0 58 2.0 2.0 0.00 0.00 0.00 1023.3
20220707163333 0 334 1.0 1.0 0.00 0.00 0.00 1023.6
20220707162832 0 333 0.0 1.0 0.00 0.00 0.00 1023.3
20220707162330 0 333 1.0 1.0 0.00 0.00 0.00 1023.6
20220707161830 0 36 2.0 2.0 0.00 0.00 0.00 1023.6
20220707161329 0 42 4.0 5.0 0.00 0.00 0.00 1023.6
20220707160829 0 40 3.0 3.0 0.00 0.00 0.00 1023.6
20220707160327 0 53 1.0 2.0 0.00 0.00 0.00 1023.3
20220707155827 0 71 1.0 1.0 0.00 0.00 0.00 1023.3
20220707155326 0 72 2.0 2.0 0.00 0.00 0.00 1023.6
20220707154825 0 10 1.0 3.0 0.00 0.00 0.00 1024.0
20220707154324 0 55 1.0 2.0 0.00 0.00 0.00 1023.6
20220707153824 0 50 2.0 3.0 0.00 0.00 0.00 1024.0
20220707153324 0 299 0.0 0.0 0.00 0.00 0.00 1024.0
20220707152824 0 30 0.0 1.0 0.00 0.00 0.00 1024.0
20220707152323 0 70 1.0 2.0 0.00 0.00 0.00 1024.3
20220707151822 0 10 3.0 3.0 0.00 0.00 0.00 1024.0
20220707151321 0 283 4.0 6.0 0.00 0.00 0.00 1024.0
20220707150820 0 85 3.0 3.0 0.00 0.00 0.00 1024.3
20220707150320 0 236 3.0 5.0 0.00 0.00 0.00 1024.3
20220707145818 0 2 0.0 1.0 0.00 0.00 0.00 1024.0
20220707145318 0 18 3.0 3.0 0.00 0.00 0.00 1024.3
20220707144816 0 69 2.0 2.0 0.00 0.00 0.00 1024.0
20220707144315 0 52 1.0 2.0 0.00 0.00 0.00 1024.3
20220707143813 0 47 3.0 3.0 0.00 0.00 0.00 1024.3
20220707143312 0 84 1.0 2.0 0.00 0.00 0.00 1024.0
20220707142810 0 42 1.0 1.0 0.00 0.00 0.00 1024.3
20220707142309 0 127 1.0 2.0 0.00 0.00 0.00 1024.3
20220707141809 0 64 1.0 1.0 0.00 0.00 0.00 1024.3
20220707141308 0 139 1.0 2.0 0.00 0.00 0.00 1024.3
20220707140808 0 150 0.0 1.0 0.00 0.00 0.00 1024.3
20220707140306 0 139 2.0 2.0 0.00 0.00 0.00 1024.0
20220707135806 0 187 0.0 0.0 0.00 0.00 0.00 1024.0
20220707135305 0 186 0.0 0.0 0.00 0.00 0.00 1024.0
20220707134805 0 186 0.0 0.0 0.00 0.00 0.00 1023.6
20220707134303 0 186 0.0 0.0 0.00 0.00 0.00 1023.6
20220707133803 0 186 0.0 0.0 0.00 0.00 0.00 1023.6
20220707133304 0 186 0.0 0.0 0.00 0.00 0.00 1023.6
20220707132802 0 186 0.0 0.0 0.00 0.00 0.00 1023.6
20220707132300 0 186 0.0 0.0 0.00 0.00 0.00 1023.3
20220707131800 0 186 0.0 0.0 0.00 0.00 0.00 1023.3
20220707131259 0 185 0.0 0.0 0.00 0.00 0.00 1023.3
20220707130758 0 185 0.0 0.0 0.00 0.00 0.00 1023.3
20220707130257 0 185 0.0 0.0 0.00 0.00 0.00 1022.9
20220707125755 0 185 0.0 0.0 0.00 0.00 0.00 1023.3
20220707125254 0 185 0.0 0.0 0.00 0.00 0.00 1022.9
20220707124752 0 185 0.0 0.0 0.00 0.00 0.00 1022.9
20220707124251 0 185 0.0 0.0 0.00 0.00 0.00 1022.9
20220707123749 0 185 0.0 0.0 0.00 0.00 0.00 1022.6
20220707123247 0 186 0.0 0.0 0.00 0.00 0.00 1022.6
20220707122746 0 186 0.0 0.0 0.00 0.00 0.00 1022.6
20220707122245 0 186 0.0 0.0 0.00 0.00 0.00 1022.3
20220707121743 0 186 0.0 0.0 0.00 0.00 0.00 1022.6
20220707121242 0 186 0.0 0.0 0.00 0.00 0.00 1022.3
20220707120741 0 186 0.0 0.0 0.00 0.00 0.00 1022.6
20220707120240 0 185 0.0 0.0 0.00 0.00 0.00 1022.6
20220707115740 0 185 0.0 0.0 0.00 0.00 0.00 1022.3
20220707115238 0 185 0.0 0.0 0.00 0.00 0.00 1022.9
20220707114737 0 185 0.0 0.0 0.00 0.00 0.00 1022.3
20220707114236 0 185 0.0 0.0 0.00 0.00 0.00 1022.3
20220707113735 0 185 0.0 0.0 0.00 0.00 0.00 1022.3
20220707113235 0 186 0.0 0.0 0.00 0.00 0.00 1022.3
20220707112733 0 186 0.0 0.0 0.00 0.00 0.00 1022.3
20220707112232 0 186 0.0 0.0 0.00 0.00 0.00 1021.9
20220707111731 0 186 0.0 0.0 0.00 0.00 0.00 1022.3
20220707111230 0 186 0.0 0.0 0.00 0.00 0.00 1021.9
20220707110730 0 186 0.0 0.0 0.00 0.00 0.00 1021.9
20220707110230 0 186 0.0 0.0 0.00 0.00 0.00 1021.9
20220707105728 0 186 0.0 0.0 0.00 0.00 0.00 1022.3
20220707105228 0 186 0.0 0.0 0.00 0.00 0.00 1021.9
20220707104727 0 185 0.0 0.0 0.00 0.00 0.00 1021.9
20220707104225 0 186 0.0 0.0 0.00 0.00 0.00 1021.5
20220707103724 0 186 0.0 0.0 0.00 0.00 0.00 1021.5
20220707103224 0 186 0.0 0.0 0.00 0.00 0.00 1021.5
20220707102724 0 186 0.0 0.0 0.00 0.00 0.00 1021.5
20220707102224 0 179 0.0 0.0 0.00 0.00 0.00 1021.5
20220707101722 0 179 0.0 0.0 0.00 0.00 0.00 1021.1
20220707101221 0 186 0.0 0.0 0.00 0.00 0.00 1021.1
20220707100721 0 179 0.0 0.0 0.00 0.00 0.00 1021.5
20220707100220 0 172 0.0 0.0 0.00 0.00 0.00 1021.5
20220707095720 0 186 0.0 0.0 0.00 0.00 0.00 1021.5
20220707095219 0 186 0.0 0.0 0.00 0.00 0.00 1021.1
20220707094718 0 185 0.0 0.0 0.00 0.00 0.00 1021.1
20220707094217 0 186 0.0 0.0 0.00 0.00 0.00 1021.1
20220707093715 0 184 1.0 1.0 0.00 0.00 0.00 1021.1
20220707093215 0 186 0.0 0.0 0.00 0.00 0.00 1021.1
20220707092715 0 186 0.0 0.0 0.00 0.00 0.00 1021.1
20220707092213 0 185 0.0 0.0 0.00 0.00 0.00 1021.1
20220707091711 0 185 0.0 0.0 0.00 0.00 0.00 1020.8
20220707091209 0 159 0.0 0.0 0.00 0.00 0.00 1020.8
20220707090709 0 178 0.0 1.0 0.00 0.00 0.00 1020.8
20220707090209 0 186 0.0 0.0 0.00 0.00 0.00 1020.8
20220707085708 0 186 0.0 0.0 0.00 0.00 0.00 1020.5
20220707085207 0 186 0.0 0.0 0.00 0.00 0.00 1020.5
20220707084705 0 185 0.0 0.0 0.00 0.00 0.00 1020.5
20220707084206 0 176 0.0 0.0 0.00 0.00 0.00 1020.5
20220707083705 0 162 0.0 0.0 0.00 0.00 0.00 1020.5
20220707083205 0 186 0.0 0.0 0.00 0.00 0.00 1020.5
20220707082703 0 186 0.0 0.0 0.00 0.00 0.00 1020.5
20220707082202 0 186 0.0 0.0 0.00 0.00 0.00 1020.5
20220707081700 0 186 0.0 0.0 0.00 0.00 0.00 1020.5
20220707081159 0 185 0.0 0.0 0.00 0.00 0.00 1020.8
20220707080659 0 186 0.0 0.0 0.00 0.00 0.00 1020.5
20220707080158 0 180 0.0 0.0 0.00 0.00 0.00 1020.5
20220707075658 0 159 0.0 0.0 0.00 0.00 0.00 1020.5
20220707075156 0 159 0.0 0.0 0.00 0.00 0.00 1020.5
20220707074656 0 159 0.0 0.0 0.00 0.00 0.00 1020.5
20220707074154 0 159 0.0 0.0 0.00 0.00 0.00 1020.5
20220707073655 0 159 0.0 0.0 0.00 0.00 0.00 1020.5
20220707073155 0 159 0.0 0.0 0.00 0.00 0.00 1020.5
20220707072653 0 159 0.0 0.0 0.00 0.00 0.00 1020.5
20220707072152 0 159 0.0 0.0 0.00 0.00 0.00 1020.5
20220707071652 0 159 0.0 0.0 0.00 0.00 0.00 1020.8
20220707071151 0 159 0.0 0.0 0.00 0.00 0.00 1020.5
20220707070651 0 159 0.0 0.0 0.00 0.00 0.00 1020.5
20220707070149 0 159 0.0 0.0 0.00 0.00 0.00 1020.8
20220707065647 0 159 0.0 0.0 0.00 0.00 0.00 1020.8
20220707065146 0 159 0.0 0.0 0.00 0.00 0.00 1020.8
20220707064645 0 159 0.0 0.0 0.00 0.00 0.00 1021.1
20220707064143 0 159 0.0 0.0 0.00 0.00 0.00 1020.8
20220707063642 0 159 0.0 0.0 0.00 0.00 0.00 1021.1
20220707063141 0 159 0.0 0.0 0.00 0.00 0.00 1021.1
20220707062639 0 159 0.0 0.0 0.00 0.00 0.00 1020.8
20220707062139 0 159 0.0 0.0 0.00 0.00 0.00 1020.8
20220707061640 0 159 0.0 0.0 0.00 0.00 0.00 1020.8
20220707061138 0 159 0.0 0.0 0.00 0.00 0.00 1020.8
20220707060638 0 159 0.0 0.0 0.00 0.00 0.00 1020.8
20220707060136 0 158 0.0 0.0 0.00 0.00 0.00 1020.8
20220707055634 0 159 0.0 0.0 0.00 0.00 0.00 1021.1
20220707055134 0 159 0.0 0.0 0.00 0.00 0.00 1020.8
20220707054633 0 158 0.0 0.0 0.00 0.00 0.00 1020.8
20220707054133 0 159 0.0 0.0 0.00 0.00 0.00 1020.8
20220707053634 0 159 0.0 0.0 0.00 0.00 0.00 1020.8
20220707053133 0 159 0.0 0.0 0.00 0.00 0.00 1020.5
20220707052632 0 159 0.0 0.0 0.00 0.00 0.00 1021.1
20220707052130 0 159 0.0 0.0 0.00 0.00 0.00 1020.8
20220707051630 0 159 0.0 0.0 0.00 0.00 0.00 1020.8
20220707051130 0 159 0.0 0.0 0.00 0.00 0.00 1020.8
20220707050630 0 159 0.0 0.0 0.00 0.00 0.00 1021.1
20220707050128 0 160 0.0 0.0 0.00 0.00 0.00 1020.8
20220707045627 0 109 1.0 1.0 0.00 0.00 0.00 1020.8
20220707045126 0 221 0.0 0.0 0.00 0.00 0.00 1021.1
20220707044625 0 221 0.0 0.0 0.00 0.00 0.00 1021.1
20220707044124 0 221 0.0 0.0 0.00 0.00 0.00 1021.1
20220707043625 0 221 0.0 0.0 0.00 0.00 0.00 1021.1
20220707043123 0 221 0.0 0.0 0.00 0.00 0.00 1021.1
20220707042623 0 221 0.0 0.0 0.00 0.00 0.00 1021.5
20220707042122 0 221 0.0 0.0 0.00 0.00 0.00 1021.5
20220707041621 0 221 0.0 0.0 0.00 0.00 0.00 1021.5
20220707041120 0 221 0.0 0.0 0.00 0.00 0.00 1021.9
20220707040620 0 221 0.0 0.0 0.00 0.00 0.00 1021.5
20220707040119 0 221 0.0 0.0 0.00 0.00 0.00 1021.5
20220707035617 0 221 0.0 0.0 0.00 0.00 0.00 1021.9
20220707035116 0 221 0.0 0.0 0.00 0.00 0.00 1021.9
20220707034614 0 221 0.0 0.0 0.00 0.00 0.00 1021.9
20220707034112 0 221 0.0 0.0 0.00 0.00 0.00 1022.3
20220707033611 0 221 0.0 0.0 0.00 0.00 0.00 1022.3
20220707033109 0 221 0.0 0.0 0.00 0.00 0.00 1021.9
20220707032609 0 222 0.0 0.0 0.00 0.00 0.00 1022.3
20220707032109 0 222 0.0 0.0 0.00 0.00 0.00 1022.3
20220707031607 0 221 0.0 0.0 0.00 0.00 0.00 1021.9
20220707031107 0 221 0.0 0.0 0.00 0.00 0.00 1021.9
20220707030606 0 222 0.0 0.0 0.00 0.00 0.00 1021.9
20220707030104 0 222 0.0 0.0 0.00 0.00 0.00 1021.9
20220707025603 0 222 0.0 0.0 0.00 0.00 0.00 1021.5
20220707025103 0 223 0.0 1.0 0.00 0.00 0.00 1021.9
20220707024603 0 223 0.0 0.0 0.00 0.00 0.00 1021.9
20220707024103 0 223 0.0 0.0 0.00 0.00 0.00 1021.9
20220707023603 0 223 0.0 0.0 0.00 0.00 0.00 1021.5
20220707023103 0 223 0.0 0.0 0.00 0.00 0.00 1021.5
20220707022601 0 223 0.0 0.0 0.00 0.00 0.00 1021.5
20220707022100 0 223 0.0 0.0 0.00 0.00 0.00 1021.5
20220707021600 0 223 0.0 0.0 0.00 0.00 0.00 1021.5
20220707021100 0 223 0.0 0.0 0.00 0.00 0.00 1021.5
20220707020559 0 223 0.0 0.0 0.00 0.00 0.00 1021.1
20220707020057 0 223 0.0 0.0 0.00 0.00 0.00 1021.1
20220707015556 0 223 0.0 0.0 0.00 0.00 0.00 1021.1
20220707015056 0 223 0.0 0.0 0.00 0.00 0.00 1021.1
20220707014554 0 223 0.0 0.0 0.00 0.00 0.00 1021.1
20220707014054 0 223 0.0 0.0 0.00 0.00 0.00 1021.1
20220707013553 0 224 0.0 0.0 0.00 0.00 0.00 1021.1
20220707013054 0 224 0.0 0.0 0.00 0.00 0.00 1020.8
20220707012553 0 224 0.0 0.0 0.00 0.00 0.00 1021.1
20220707012052 0 225 0.0 0.0 0.00 0.00 0.00 1021.1
20220707011552 0 225 0.0 0.0 0.00 0.00 0.00 1021.1
20220707011051 0 226 0.0 0.0 0.00 0.00 0.00 1021.1
20220707010549 0 226 0.0 0.0 0.00 0.00 0.00 1020.8
20220707010047 0 226 0.0 0.0 0.00 0.00 0.00 1020.8
20220707005546 0 226 0.0 0.0 0.00 0.00 0.00 1020.8
20220707005044 0 226 0.0 0.0 0.00 0.00 0.00 1020.8
20220707004544 0 226 0.0 0.0 0.00 0.00 0.00 1020.8
20220707004043 0 226 0.0 0.0 0.00 0.00 0.00 1020.5
20220707003543 0 226 0.0 0.0 0.00 0.00 0.00 1020.5
20220707003042 0 227 0.0 0.0 0.00 0.00 0.00 1020.5
20220707002541 0 227 0.0 0.0 0.00 0.00 0.00 1020.5
20220707002041 0 227 0.0 0.0 0.00 0.00 0.00 1020.5
20220707001540 0 227 0.0 0.0 0.00 0.00 0.00 1020.5
20220707001040 0 227 0.0 0.0 0.00 0.00 0.00 1020.5
20220707000540 0 227 0.0 0.0 0.00 0.00 0.00 1020.5
20220707000039 0 227 0.0 0.0 0.00 0.00 0.00 1020.5
20220706235540 0 227 0.0 1.0 0.00 0.00 0.00 1020.5
20220706235038 0 227 0.0 0.0 0.00 0.00 0.00 1020.1
20220706234537 0 228 0.0 0.0 0.00 0.00 0.00 1020.5
20220706234036 0 228 0.0 0.0 0.00 0.00 0.00 1020.5
20220706233536 0 228 0.0 0.0 0.00 0.00 0.00 1020.1
20220706233036 0 228 0.0 0.0 0.00 0.00 0.00 1020.5
20220706232535 0 227 0.0 0.0 0.00 0.00 0.00 1020.1
20220706232035 0 228 0.0 0.0 0.00 0.00 0.00 1020.5
20220706231535 0 228 0.0 0.0 0.00 0.00 0.00 1020.5
20220706231033 0 228 1.0 1.0 0.00 0.00 0.00 1020.5
20220706230531 0 228 0.0 0.0 0.00 0.00 0.00 1020.5
20220706230031 0 229 0.0 0.0 0.00 0.00 0.00 1020.5
20220706225530 0 180 0.0 0.0 0.00 0.00 0.00 1020.8
20220706225029 0 180 0.0 0.0 0.00 0.00 0.00 1020.5
20220706224528 0 180 0.0 0.0 0.00 0.00 0.00 1020.5
20220706224026 0 207 0.0 0.0 0.00 0.00 0.00 1020.8
20220706223526 0 208 1.0 1.0 0.00 0.00 0.00 1020.8
20220706223026 0 230 2.0 2.0 0.00 0.00 0.00 1020.8
20220706222526 0 156 1.0 1.0 0.00 0.00 0.00 1020.5
20220706222024 0 224 1.0 1.0 0.00 0.00 0.00 1020.5
20220706221523 0 265 1.0 1.0 0.00 0.00 0.00 1020.8
20220706221021 0 265 1.0 1.0 0.00 0.00 0.00 1020.5
20220706220520 0 174 0.0 1.0 0.00 0.00 0.00 1020.8
20220706220019 0 230 1.0 1.0 0.00 0.00 0.00 1020.8
20220706215518 0 264 3.0 5.0 0.00 0.00 0.00 1020.5
20220706215018 0 226 1.0 1.0 0.00 0.00 0.00 1020.8
20220706214518 0 202 1.0 2.0 0.00 0.00 0.00 1021.1
20220706214017 0 172 0.0 0.0 0.00 0.00 0.00 1020.8
20220706213516 0 249 1.0 1.0 0.00 0.00 0.00 1020.8
20220706213015 0 210 0.0 0.0 0.00 0.00 0.00 1020.8
20220706212513 0 203 0.0 1.0 0.00 0.00 0.00 1020.8
20220706212011 0 237 1.0 1.0 0.00 0.00 0.00 1020.8
20220706211510 0 188 0.0 0.0 0.00 0.00 0.00 1020.8
20220706211008 0 221 0.0 0.0 0.00 0.00 0.00 1020.8
20220706210507 0 92 3.0 3.0 0.00 0.00 0.00 1020.8
20220706210005 0 193 2.0 3.0 0.00 0.00 0.00 1020.8
20220706205503 0 96 0.0 0.0 0.00 0.00 0.00 1020.8
20220706205003 0 224 0.0 1.0 0.00 0.00 0.00 1020.8
20220706204503 0 187 1.0 1.0 0.00 0.00 0.00 1020.8
20220706204003 0 241 0.0 1.0 0.00 0.00 0.00 1020.8
20220706203502 0 215 2.0 3.0 0.00 0.00 0.00 1020.8
20220706203001 0 188 2.0 3.0 0.00 0.00 0.00 1021.1
20220706202500 0 187 2.0 2.0 0.00 0.00 0.00 1021.1
20220706202001 0 267 4.0 6.0 0.00 0.00 0.00 1021.1
20220706201459 0 286 1.0 1.0 0.00 0.00 0.00 1021.1
20220706200959 0 288 0.0 1.0 0.00 0.00 0.00 1021.1
20220706200458 0 206 2.0 2.0 0.00 0.00 0.00 1021.5
20220706195958 0 91 1.0 1.0 0.00 0.00 0.00 1021.5
20220706195457 0 248 1.0 1.0 0.00 0.00 0.00 1021.1
20220706194955 0 249 0.0 0.0 0.00 0.00 0.00 1021.5
20220706194456 0 249 0.0 1.0 0.00 0.00 0.00 1021.5
20220706193954 0 206 1.0 2.0 0.00 0.00 0.00 1021.5
20220706193454 0 304 3.0 3.0 0.00 0.00 0.00 1021.5
20220706192954 0 24 0.0 1.0 0.00 0.00 0.00 1021.9
20220706192454 0 12 3.0 3.0 0.00 0.00 0.00 1021.9
20220706191954 0 26 2.0 2.0 0.00 0.00 0.00 1021.5
20220706191453 0 13 0.0 0.0 0.00 0.00 0.00 1021.9
20220706190951 0 0 2.0 2.0 0.00 0.00 0.00 1021.5
20220706190449 0 45 3.0 3.0 0.00 0.00 0.00 1021.9
20220706185947 0 32 2.0 3.0 0.00 0.00 0.00 1021.9
20220706185446 0 33 2.0 3.0 0.00 0.00 0.00 1021.9
20220706184944 0 22 2.0 2.0 0.00 0.00 0.00 1022.3
20220706184443 0 281 1.0 1.0 0.00 0.00 0.00 1021.9
20220706183942 0 7 0.0 0.0 0.00 0.00 0.00 1022.3
20220706183440 0 234 1.0 1.0 0.00 0.00 0.00 1022.3
20220706182939 0 29 2.0 2.0 0.00 0.00 0.00 1022.3
20220706182438 0 40 1.0 1.0 0.00 0.00 0.00 1022.3
20220706181938 0 265 1.0 1.0 0.00 0.00 0.00 1022.3
20220706181437 0 310 1.0 1.0 0.00 0.00 0.00 1022.6
20220706180936 0 270 1.0 1.0 0.00 0.00 0.00 1022.9
20220706180435 0 168 2.0 2.0 0.00 0.00 0.00 1022.6
20220706175933 0 146 2.0 2.0 0.00 0.00 0.00 1022.9
20220706175432 0 98 1.0 1.0 0.00 0.00 0.00 1022.9
20220706174931 0 175 1.0 1.0 0.00 0.00 0.00 1022.6
20220706174430 0 141 1.0 1.0 0.00 0.00 0.00 1022.9
20220706173929 0 218 1.0 1.0 0.00 0.00 0.00 1022.9
20220706173429 0 215 2.0 2.0 0.00 0.00 0.00 1022.9
20220706172929 0 191 2.0 2.0 0.00 0.00 0.00 1022.9
20220706172428 0 73 0.0 0.0 0.00 0.00 0.00 1022.6
20220706171928 0 73 0.0 0.0 0.00 0.00 0.00 1022.6
20220706171426 0 132 1.0 1.0 0.00 0.00 0.00 1022.9